createdAt,value
2023-05-14T00:00:25.999Z,54.37
2023-05-14T00:05:28.592Z,54.50
2023-05-14T00:10:31.032Z,55.51
2023-05-14T00:15:34.501Z,55.61
2023-05-14T00:20:37.136Z,56.16
2023-05-14T00:25:39.826Z,56.55
2023-05-14T00:30:42.627Z,57.34
2023-05-14T00:35:45.410Z,57.92
2023-05-14T00:40:51.682Z,58.26
2023-05-14T00:45:56.205Z,58.29
2023-05-14T00:50:58.681Z,58.92
2023-05-14T00:56:03.647Z,58.79
2023-05-14T01:01:06.300Z,58.95
2023-05-14T01:06:56.751Z,59.58
2023-05-14T01:12:18.670Z,60.10
2023-05-14T01:17:23.518Z,59.67
2023-05-14T01:22:26.410Z,59.46
2023-05-14T01:27:35.028Z,59.03
2023-05-14T01:32:39.753Z,58.92
2023-05-14T01:37:44.361Z,59.00
2023-05-14T01:42:49.593Z,58.64
2023-05-14T01:47:53.013Z,58.44
2023-05-14T01:52:56.939Z,57.87
2023-05-14T01:57:59.722Z,57.55
2023-05-14T02:03:02.644Z,55.87
2023-05-14T02:08:05.387Z,54.11
2023-05-14T02:13:09.895Z,52.91
2023-05-14T02:18:12.907Z,53.03
2023-05-14T02:23:15.559Z,53.00
2023-05-14T02:28:18.404Z,52.91
2023-05-14T02:33:21.037Z,51.33
2023-05-14T02:38:23.977Z,50.67
2023-05-14T02:43:26.545Z,49.99
2023-05-14T02:48:29.022Z,48.78
2023-05-14T02:53:31.542Z,47.10
2023-05-14T02:58:34.530Z,46.32
2023-05-14T03:03:38.431Z,45.40
2023-05-14T03:08:41.943Z,43.72
2023-05-14T03:13:44.493Z,42.73
2023-05-14T03:18:47.006Z,41.61
2023-05-14T03:23:49.655Z,40.39
2023-05-14T03:28:54.322Z,38.85
2023-05-14T03:33:57.170Z,38.49
2023-05-14T03:38:59.801Z,37.08
2023-05-14T03:44:02.720Z,35.60
2023-05-14T03:49:05.608Z,34.24
2023-05-14T03:54:08.429Z,32.95
2023-05-14T03:59:11.101Z,32.16
2023-05-14T04:04:13.746Z,31.42
2023-05-14T04:09:16.313Z,30.39
2023-05-14T04:14:18.914Z,29.55
2023-05-14T04:19:21.772Z,28.62
2023-05-14T04:24:24.345Z,28.03
2023-05-14T04:29:26.905Z,27.59
2023-05-14T04:34:29.418Z,26.96
2023-05-14T04:39:32.071Z,26.96
2023-05-14T04:44:35.506Z,25.93
2023-05-14T04:49:38.040Z,26.28
2023-05-14T04:54:40.757Z,25.50
2023-05-14T04:59:43.411Z,24.17
2023-05-14T05:04:47.462Z,23.57
2023-05-14T05:09:50.076Z,22.31
2023-05-14T05:14:52.622Z,22.56
2023-05-14T05:19:55.533Z,21.67
2023-05-14T05:24:59.022Z,21.00
2023-05-14T05:30:05.016Z,20.06
2023-05-14T05:35:09.374Z,19.30
2023-05-14T05:40:14.322Z,18.85
2023-05-14T05:45:16.861Z,19.62
2023-05-14T05:50:20.073Z,18.24
2023-05-14T05:55:22.834Z,19.15
2023-05-14T06:00:26.042Z,18.59
2023-05-14T06:05:28.847Z,18.13
2023-05-14T06:10:31.535Z,17.99
2023-05-14T06:15:34.093Z,17.89
2023-05-14T06:20:36.764Z,16.96
2023-05-14T06:25:39.349Z,16.63
2023-05-14T06:30:42.193Z,16.34
2023-05-14T06:35:46.178Z,16.51
2023-05-14T06:40:48.703Z,15.84
2023-05-14T06:45:51.949Z,16.17
2023-05-14T06:50:54.589Z,15.79
2023-05-14T06:55:57.078Z,16.27
2023-05-14T07:01:00.336Z,15.84
2023-05-14T07:06:02.934Z,15.72
2023-05-14T07:11:05.617Z,16.02
2023-05-14T07:16:11.886Z,15.92
2023-05-14T07:21:14.348Z,15.14
2023-05-14T07:26:16.903Z,15.41
2023-05-14T07:31:19.419Z,15.31
2023-05-14T07:36:21.927Z,15.30
2023-05-14T07:41:24.510Z,15.16
2023-05-14T07:46:26.968Z,15.06
2023-05-14T07:51:29.594Z,15.15
2023-05-14T07:56:32.137Z,15.39
2023-05-14T08:01:34.710Z,15.75
2023-05-14T08:06:37.509Z,15.04
2023-05-14T08:11:40.077Z,14.96
2023-05-14T08:16:42.610Z,15.08
2023-05-14T08:21:45.290Z,15.68
2023-05-14T08:26:48.031Z,15.04
2023-05-14T08:31:51.512Z,15.62
2023-05-14T08:36:54.157Z,15.33
2023-05-14T08:41:58.250Z,15.42
2023-05-14T08:47:01.030Z,16.30
2023-05-14T08:52:04.245Z,16.13
2023-05-14T08:57:10.131Z,15.40
2023-05-14T09:02:17.209Z,16.47
2023-05-14T09:07:19.777Z,16.51
2023-05-14T09:12:22.777Z,17.42
2023-05-14T09:17:27.784Z,16.82
2023-05-14T09:22:33.460Z,16.01
2023-05-14T09:27:36.815Z,16.39
2023-05-14T09:32:47.578Z,18.46
2023-05-14T09:37:52.368Z,17.38
2023-05-14T09:42:55.227Z,17.09
2023-05-14T09:48:01.396Z,16.54
2023-05-14T09:53:04.684Z,17.14
2023-05-14T09:58:07.207Z,16.66
2023-05-14T10:03:13.733Z,17.34
2023-05-14T10:08:27.107Z,18.74
2023-05-14T10:13:37.661Z,19.91
2023-05-14T10:18:52.193Z,20.96
2023-05-14T10:23:54.789Z,21.00
2023-05-14T10:28:58.429Z,18.56
2023-05-14T10:34:00.928Z,18.36
2023-05-14T10:39:04.620Z,19.08
2023-05-14T10:44:10.356Z,19.23
2023-05-14T10:49:12.874Z,18.73
2023-05-14T10:54:17.185Z,19.06
2023-05-14T10:59:19.994Z,18.73
2023-05-14T11:04:25.640Z,19.06
2023-05-14T11:09:28.378Z,19.77
2023-05-14T11:14:30.943Z,19.93
2023-05-14T11:19:33.405Z,19.70
2023-05-14T11:24:35.947Z,20.16
2023-05-14T11:29:38.898Z,20.44
2023-05-14T11:34:41.851Z,21.05
2023-05-14T11:39:52.531Z,20.73
2023-05-14T11:44:55.122Z,22.70
2023-05-14T11:49:57.729Z,23.31
2023-05-14T11:55:00.394Z,23.95
2023-05-14T12:00:05.246Z,23.92
2023-05-14T12:05:11.867Z,24.17
2023-05-14T12:10:15.205Z,23.61
2023-05-14T12:15:18.508Z,23.05
2023-05-14T12:20:21.144Z,22.55
2023-05-14T12:25:26.369Z,23.02
2023-05-14T12:30:37.447Z,24.14
2023-05-14T12:35:40.025Z,23.54
2023-05-14T12:40:42.599Z,22.85
2023-05-14T12:45:45.105Z,23.38
2023-05-14T12:50:48.815Z,23.34
2023-05-14T12:55:51.369Z,23.68
2023-05-14T13:00:53.965Z,22.46
2023-05-14T13:05:56.682Z,23.16
2023-05-14T13:10:59.242Z,23.60
2023-05-14T13:16:01.673Z,24.14
2023-05-14T13:21:06.593Z,23.63
2023-05-14T13:26:10.073Z,24.08
2023-05-14T13:31:13.544Z,24.78
2023-05-14T13:36:16.688Z,25.17
2023-05-14T13:41:19.283Z,26.04
2023-05-14T13:46:21.961Z,26.30
2023-05-14T13:51:24.479Z,26.24
2023-05-14T13:56:27.072Z,26.78
2023-05-14T14:01:31.235Z,26.96
2023-05-14T14:06:33.792Z,27.76
2023-05-14T14:11:36.544Z,27.19
2023-05-14T14:16:39.350Z,27.70
2023-05-14T14:21:43.117Z,27.98
2023-05-14T14:26:45.617Z,27.90
2023-05-14T14:31:48.339Z,27.70
2023-05-14T14:36:51.068Z,28.02
2023-05-14T14:41:53.602Z,28.96
2023-05-14T14:46:56.143Z,29.51
2023-05-14T14:51:58.853Z,30.03
2023-05-14T14:57:01.424Z,30.30
2023-05-14T15:02:04.306Z,30.27
2023-05-14T15:07:06.836Z,30.51
2023-05-14T15:12:10.526Z,30.99
2023-05-14T15:17:13.038Z,30.50
2023-05-14T15:22:15.904Z,30.36
2023-05-14T15:27:18.537Z,30.23
2023-05-14T15:32:21.251Z,30.93
2023-05-14T15:37:27.152Z,30.73
2023-05-14T15:42:29.724Z,30.67
2023-05-14T15:47:32.899Z,31.21
2023-05-14T15:52:36.770Z,31.36
2023-05-14T15:57:39.459Z,31.89
2023-05-14T16:02:42.263Z,32.29
2023-05-14T16:07:44.929Z,32.68
2023-05-14T16:12:47.425Z,32.82
2023-05-14T16:17:50.065Z,32.94
2023-05-14T16:22:52.612Z,33.32
2023-05-14T16:27:55.172Z,33.64
2023-05-14T16:32:57.719Z,34.16
2023-05-14T16:38:00.257Z,34.35
2023-05-14T16:43:02.954Z,35.34
2023-05-14T16:48:06.445Z,35.99
2023-05-14T16:53:09.198Z,36.42
2023-05-14T16:58:11.630Z,36.65
2023-05-14T17:03:14.094Z,37.02
2023-05-14T17:08:16.781Z,37.71
2023-05-14T17:13:19.466Z,38.26
2023-05-14T17:18:22.063Z,38.42
2023-05-14T17:23:24.631Z,38.35
2023-05-14T17:28:28.768Z,38.56
2023-05-14T17:33:31.980Z,38.27
2023-05-14T17:38:35.082Z,38.66
2023-05-14T17:43:37.619Z,38.84
2023-05-14T17:48:40.111Z,38.54
2023-05-14T17:53:42.568Z,38.69
2023-05-14T17:58:46.213Z,38.47
2023-05-14T18:03:48.850Z,38.75
2023-05-14T18:08:51.505Z,38.72
2023-05-14T18:13:54.079Z,38.42
2023-05-14T18:18:56.807Z,39.06
2023-05-14T18:23:59.530Z,39.96
2023-05-14T18:29:02.122Z,40.21
2023-05-14T18:34:04.752Z,40.35
2023-05-14T18:39:07.397Z,40.73
2023-05-14T18:44:10.079Z,41.19
2023-05-14T18:49:12.572Z,41.62
2023-05-14T18:54:15.022Z,42.07
2023-05-14T18:59:17.577Z,42.00
2023-05-14T19:04:20.154Z,41.95
2023-05-14T19:09:23.152Z,42.19
2023-05-14T19:14:26.530Z,43.04
2023-05-14T19:19:29.306Z,43.38
2023-05-14T19:24:31.852Z,43.59
2023-05-14T19:29:34.508Z,43.55
2023-05-14T19:34:37.113Z,44.00
2023-05-14T19:39:39.646Z,44.11
2023-05-14T19:44:42.354Z,44.42
2023-05-14T19:49:44.807Z,44.50
2023-05-14T19:54:47.344Z,44.60
2023-05-14T19:59:49.996Z,45.49
2023-05-14T20:04:55.739Z,45.44
2023-05-14T20:09:58.238Z,45.76
2023-05-14T20:15:00.725Z,46.11
2023-05-14T20:20:03.754Z,47.04
2023-05-14T20:25:07.720Z,48.00
2023-05-14T20:30:10.786Z,49.38
2023-05-14T20:35:13.599Z,49.62
2023-05-14T20:40:16.145Z,49.67
2023-05-14T20:45:19.112Z,50.27
2023-05-14T20:50:22.846Z,50.06
2023-05-14T20:55:25.705Z,50.06
2023-05-14T21:00:28.480Z,51.75
2023-05-14T21:05:30.966Z,52.30
2023-05-14T21:10:33.448Z,52.73
2023-05-14T21:15:37.053Z,52.31
2023-05-14T21:20:40.539Z,52.00
2023-05-14T21:25:43.040Z,50.77
2023-05-14T21:30:46.112Z,49.99
2023-05-14T21:35:48.746Z,49.64
2023-05-14T21:40:51.599Z,48.40
2023-05-14T21:45:54.237Z,48.15
2023-05-14T21:50:56.651Z,48.32
2023-05-14T21:55:59.116Z,48.69
2023-05-14T22:01:01.563Z,48.79
2023-05-14T22:06:04.492Z,48.56
2023-05-14T22:11:06.910Z,48.80
2023-05-14T22:16:13.755Z,48.78
2023-05-14T22:21:16.859Z,48.79
2023-05-14T22:26:19.723Z,49.20
2023-05-14T22:31:22.227Z,49.12
2023-05-14T22:36:24.721Z,49.55
2023-05-14T22:41:27.298Z,49.22
2023-05-14T22:46:30.346Z,49.37
2023-05-14T22:51:33.031Z,49.45
2023-05-14T22:56:36.117Z,49.44
2023-05-14T23:01:39.247Z,49.58
2023-05-14T23:06:41.911Z,49.82
2023-05-14T23:11:44.478Z,49.93
2023-05-14T23:16:46.942Z,50.13
2023-05-14T23:21:49.452Z,50.51
2023-05-14T23:26:51.944Z,51.21
2023-05-14T23:31:54.600Z,51.19
2023-05-14T23:36:57.146Z,52.15
2023-05-14T23:41:59.725Z,52.12
2023-05-14T23:47:04.593Z,52.26
2023-05-14T23:52:07.495Z,52.70
2023-05-14T23:57:13.034Z,53.23
